createdAt,value
2022-11-30T00:00:37.345Z,38.78
2022-11-30T00:03:04.643Z,40.50
2022-11-30T00:05:31.569Z,34.25
2022-11-30T00:08:01.211Z,40.20
2022-11-30T00:10:28.170Z,37.80
2022-11-30T00:12:54.976Z,36.22
2022-11-30T00:15:21.864Z,36.53
2022-11-30T00:17:48.966Z,33.13
2022-11-30T00:20:16.021Z,31.80
2022-11-30T00:22:43.016Z,33.90
2022-11-30T00:25:10.085Z,36.50
2022-11-30T00:27:36.901Z,34.50
2022-11-30T00:30:04.089Z,34.72
2022-11-30T00:32:30.880Z,32.63
2022-11-30T00:34:57.900Z,37.47
2022-11-30T00:37:24.788Z,34.75
2022-11-30T00:39:51.638Z,33.70
2022-11-30T00:42:18.516Z,32.80
2022-11-30T00:44:45.841Z,37.35
2022-11-30T00:47:12.943Z,29.75
2022-11-30T00:49:39.806Z,33.97
2022-11-30T00:52:06.871Z,33.33
2022-11-30T00:54:33.704Z,33.42
2022-11-30T00:57:03.691Z,29.63
2022-11-30T00:59:30.527Z,32.22
2022-11-30T01:01:57.385Z,32.30
2022-11-30T01:04:24.816Z,31.15
2022-11-30T01:06:51.660Z,33.38
2022-11-30T01:09:18.517Z,29.83
2022-11-30T01:11:45.338Z,32.53
2022-11-30T01:14:12.286Z,27.85
2022-11-30T01:16:39.122Z,29.52
2022-11-30T01:19:06.121Z,27.20
2022-11-30T01:21:33.011Z,28.42
2022-11-30T01:23:59.821Z,30.17
2022-11-30T01:26:27.877Z,31.90
2022-11-30T01:28:55.089Z,29.08
2022-11-30T01:31:23.861Z,29.27
2022-11-30T01:33:52.082Z,29.55
2022-11-30T01:36:23.913Z,31.92
2022-11-30T01:38:52.343Z,32.90
2022-11-30T01:41:27.569Z,25.15
2022-11-30T01:43:58.994Z,29.92
2022-11-30T01:46:40.871Z,25.67
2022-11-30T01:49:10.741Z,29.17
2022-11-30T01:51:39.725Z,29.90
2022-11-30T01:54:08.533Z,29.83
2022-11-30T01:56:35.883Z,27.70
2022-11-30T01:59:02.755Z,23.90
2022-11-30T02:01:29.629Z,25.60
2022-11-30T02:04:17.132Z,27.77
2022-11-30T02:06:44.310Z,29.02
2022-11-30T02:09:11.387Z,28.02
2022-11-30T02:11:38.232Z,33.45
2022-11-30T02:14:26.921Z,25.75
2022-11-30T02:17:03.536Z,25.90
2022-11-30T02:20:09.569Z,27.95
2022-11-30T02:25:30.685Z,26.10
2022-11-30T02:28:17.191Z,23.35
2022-11-30T02:30:46.545Z,27.30
2022-11-30T02:33:21.547Z,27.75
2022-11-30T02:35:54.864Z,24.88
2022-11-30T02:38:23.091Z,24.80
2022-11-30T02:40:49.945Z,25.77
2022-11-30T02:43:20.085Z,27.48
2022-11-30T02:46:10.433Z,28.30
2022-11-30T02:48:56.959Z,27.10
2022-11-30T02:51:24.921Z,22.98
2022-11-30T02:53:51.800Z,26.15
2022-11-30T02:56:18.664Z,26.83
2022-11-30T02:58:45.460Z,23.15
2022-11-30T03:01:12.583Z,28.63
2022-11-30T03:03:39.668Z,28.20
2022-11-30T03:06:06.497Z,21.75
2022-11-30T03:08:33.317Z,22.05
2022-11-30T03:11:04.223Z,23.75
2022-11-30T03:13:34.250Z,25.70
2022-11-30T03:16:08.675Z,24.77
2022-11-30T03:18:35.655Z,25.15
2022-11-30T03:21:06.473Z,24.25
2022-11-30T03:23:33.747Z,24.40
2022-11-30T03:26:00.638Z,30.75
2022-11-30T03:28:27.557Z,26.30
2022-11-30T03:30:54.468Z,26.90
2022-11-30T03:33:22.322Z,26.63
2022-11-30T03:35:49.172Z,23.83
2022-11-30T03:38:16.030Z,29.63
2022-11-30T03:40:42.888Z,26.42
2022-11-30T03:43:09.720Z,32.38
2022-11-30T03:45:36.535Z,26.45
2022-11-30T03:48:03.578Z,27.60
2022-11-30T03:50:30.360Z,26.05
2022-11-30T03:52:57.207Z,24.95
2022-11-30T03:55:24.543Z,26.33
2022-11-30T03:57:52.237Z,31.05
2022-11-30T04:00:19.972Z,28.15
2022-11-30T04:02:46.938Z,25.92
2022-11-30T04:05:13.861Z,26.70
2022-11-30T04:07:40.857Z,25.13
2022-11-30T04:10:08.866Z,25.83
2022-11-30T04:12:35.939Z,29.10
2022-11-30T04:15:02.900Z,23.95
2022-11-30T04:17:29.717Z,25.52
2022-11-30T04:19:56.513Z,25.83
2022-11-30T04:22:23.467Z,28.17
2022-11-30T04:24:50.472Z,24.75
2022-11-30T04:27:24.716Z,26.35
2022-11-30T04:29:51.603Z,30.02
2022-11-30T04:32:18.399Z,28.30
2022-11-30T04:34:45.713Z,27.67
2022-11-30T04:37:12.779Z,26.00
2022-11-30T04:39:39.576Z,29.95
2022-11-30T04:42:06.457Z,24.65
2022-11-30T04:44:33.442Z,22.17
2022-11-30T04:47:00.373Z,29.08
2022-11-30T04:49:27.296Z,26.88
2022-11-30T04:51:54.113Z,23.92
2022-11-30T04:54:20.902Z,25.50
2022-11-30T04:56:47.841Z,28.45
2022-11-30T04:59:14.994Z,22.10
2022-11-30T05:01:42.215Z,21.77
2022-11-30T05:04:09.078Z,24.73
2022-11-30T05:06:35.997Z,23.98
2022-11-30T05:09:02.876Z,23.27
2022-11-30T05:11:29.733Z,22.73
2022-11-30T05:13:56.631Z,22.50
2022-11-30T05:16:23.479Z,26.45
2022-11-30T05:18:50.350Z,28.90
2022-11-30T05:21:17.848Z,26.92
2022-11-30T05:23:47.045Z,25.73
2022-11-30T05:26:13.902Z,27.60
2022-11-30T05:28:40.793Z,28.17
2022-11-30T05:31:07.903Z,26.77
2022-11-30T05:33:34.991Z,27.17
2022-11-30T05:36:05.834Z,24.88
2022-11-30T05:38:38.371Z,28.55
2022-11-30T05:41:05.411Z,26.10
2022-11-30T05:43:32.273Z,29.58
2022-11-30T05:46:02.826Z,30.30
2022-11-30T05:48:29.858Z,29.20
2022-11-30T05:51:04.222Z,25.45
2022-11-30T05:53:31.126Z,26.08
2022-11-30T05:56:01.136Z,26.85
2022-11-30T05:58:27.996Z,25.58
2022-11-30T06:00:54.915Z,28.83
2022-11-30T06:03:21.794Z,28.30
2022-11-30T06:05:52.368Z,22.65
2022-11-30T06:08:19.747Z,24.52
2022-11-30T06:10:46.604Z,27.17
2022-11-30T06:13:16.093Z,28.45
2022-11-30T06:15:43.140Z,26.17
2022-11-30T06:18:11.521Z,27.27
2022-11-30T06:20:38.510Z,27.60
2022-11-30T06:23:05.492Z,28.40
2022-11-30T06:25:32.638Z,27.08
2022-11-30T06:27:59.497Z,28.85
2022-11-30T06:30:26.369Z,28.00
2022-11-30T06:32:53.204Z,25.88
2022-11-30T06:35:20.500Z,28.88
2022-11-30T06:37:47.363Z,25.83
2022-11-30T06:40:14.427Z,30.17
2022-11-30T06:42:41.336Z,25.42
2022-11-30T06:45:08.911Z,28.75
2022-11-30T06:47:35.781Z,28.33
2022-11-30T06:50:02.751Z,26.75
2022-11-30T06:52:31.302Z,29.95
2022-11-30T06:54:58.102Z,31.33
2022-11-30T06:57:28.638Z,30.13
2022-11-30T06:59:56.329Z,27.83
2022-11-30T07:02:23.471Z,27.80
2022-11-30T07:04:53.192Z,28.10
2022-11-30T07:07:20.149Z,29.20
2022-11-30T07:09:46.978Z,29.10
2022-11-30T07:12:13.951Z,28.08
2022-11-30T07:14:40.860Z,25.48
2022-11-30T07:17:07.775Z,31.10
2022-11-30T07:19:34.729Z,30.00
2022-11-30T07:22:01.921Z,29.15
2022-11-30T07:24:47.465Z,29.48
2022-11-30T07:27:14.612Z,23.15
2022-11-30T07:29:41.573Z,27.73
2022-11-30T07:32:08.427Z,29.20
2022-11-30T07:34:35.281Z,26.40
2022-11-30T07:37:02.134Z,28.65
2022-11-30T07:39:29.050Z,29.67
2022-11-30T07:41:55.933Z,31.17
2022-11-30T07:44:26.011Z,28.35
2022-11-30T07:46:52.865Z,30.83
2022-11-30T07:49:20.393Z,28.05
2022-11-30T07:51:47.278Z,27.83
2022-11-30T07:54:14.514Z,23.45
2022-11-30T07:56:41.458Z,27.35
2022-11-30T07:59:09.223Z,26.45
2022-11-30T08:01:36.119Z,24.02
2022-11-30T08:04:03.137Z,25.02
2022-11-30T08:06:30.757Z,24.02
2022-11-30T08:08:59.283Z,21.23
2022-11-30T08:11:27.879Z,27.60
2022-11-30T08:13:54.692Z,25.98
2022-11-30T08:16:23.782Z,21.23
2022-11-30T08:18:50.831Z,23.45
2022-11-30T08:21:19.503Z,18.65
2022-11-30T08:23:48.784Z,18.48
2022-11-30T08:26:17.817Z,22.83
2022-11-30T08:28:45.095Z,21.52
2022-11-30T08:31:18.797Z,17.75
2022-11-30T08:33:45.732Z,18.65
2022-11-30T08:36:17.056Z,17.35
2022-11-30T08:38:44.210Z,18.20
2022-11-30T08:41:12.086Z,18.45
2022-11-30T08:43:38.970Z,20.55
2022-11-30T08:46:27.476Z,22.42
2022-11-30T08:49:13.028Z,25.17
2022-11-30T08:54:29.377Z,19.63
2022-11-30T08:56:56.987Z,17.88
2022-11-30T08:59:23.763Z,21.60
2022-11-30T09:01:50.567Z,19.95
2022-11-30T09:04:17.460Z,21.25
2022-11-30T09:06:46.606Z,18.90
2022-11-30T09:09:13.656Z,17.75
2022-11-30T09:11:40.787Z,19.42
2022-11-30T09:14:09.087Z,35.78
2022-11-30T09:16:35.982Z,16.60
2022-11-30T09:19:02.936Z,17.85
2022-11-30T09:21:30.910Z,15.70
2022-11-30T09:23:58.108Z,17.40
2022-11-30T09:26:25.456Z,15.27
2022-11-30T09:28:54.149Z,17.77
2022-11-30T09:31:23.057Z,17.33
2022-11-30T09:33:49.875Z,16.90
2022-11-30T09:36:18.470Z,16.75
2022-11-30T09:38:46.977Z,19.25
2022-11-30T09:41:25.872Z,19.48
2022-11-30T09:44:20.876Z,17.77
2022-11-30T09:47:27.709Z,14.75
2022-11-30T09:50:01.106Z,13.80
2022-11-30T09:52:39.386Z,13.77
2022-11-30T09:55:08.824Z,14.27
2022-11-30T09:57:41.531Z,13.90
2022-11-30T10:00:21.863Z,14.80
2022-11-30T10:02:53.199Z,15.43
2022-11-30T10:05:48.155Z,13.90
2022-11-30T10:08:27.416Z,16.85
2022-11-30T10:11:18.563Z,13.68
2022-11-30T10:13:58.471Z,10.75
2022-11-30T10:16:31.294Z,12.38
2022-11-30T10:19:10.410Z,12.52
2022-11-30T10:21:43.576Z,14.30
2022-11-30T10:24:25.499Z,10.95
2022-11-30T10:26:54.423Z,14.68
2022-11-30T10:29:30.365Z,14.35
2022-11-30T10:32:00.977Z,13.23
2022-11-30T10:34:33.699Z,12.25
2022-11-30T10:37:19.110Z,12.87
2022-11-30T10:40:14.810Z,12.65
2022-11-30T10:43:19.078Z,13.73
2022-11-30T10:45:48.775Z,14.68
2022-11-30T10:48:19.806Z,15.95
2022-11-30T10:50:46.665Z,16.15
2022-11-30T10:53:13.583Z,16.30
2022-11-30T10:55:43.371Z,19.58
2022-11-30T10:58:20.920Z,17.58
2022-11-30T11:01:30.510Z,23.10
2022-11-30T11:04:17.692Z,18.55
2022-11-30T11:07:07.050Z,20.55
2022-11-30T11:09:47.323Z,20.23
2022-11-30T11:12:27.514Z,21.35
2022-11-30T11:15:16.573Z,16.67
2022-11-30T11:17:43.444Z,19.67
2022-11-30T11:20:36.469Z,17.35
2022-11-30T11:23:03.631Z,20.98
2022-11-30T11:25:37.405Z,20.13
2022-11-30T11:28:20.240Z,18.85
2022-11-30T11:30:47.149Z,17.63
2022-11-30T11:33:13.997Z,17.98
2022-11-30T11:35:45.978Z,18.80
2022-11-30T11:38:20.605Z,18.70
2022-11-30T11:41:06.765Z,16.42
2022-11-30T11:43:54.044Z,14.75
2022-11-30T11:46:20.938Z,19.05
2022-11-30T11:49:02.903Z,17.08
2022-11-30T11:51:39.807Z,15.63
2022-11-30T11:54:44.935Z,18.65
2022-11-30T11:57:14.295Z,12.07
2022-11-30T11:59:49.241Z,11.38
2022-11-30T12:02:38.247Z,11.43
2022-11-30T12:05:16.787Z,9.63
2022-11-30T12:08:39.314Z,9.20
2022-11-30T12:11:28.728Z,12.40
2022-11-30T12:13:55.868Z,10.38
2022-11-30T12:16:50.856Z,11.32
2022-11-30T12:19:22.788Z,11.50
2022-11-30T12:22:08.469Z,10.45
2022-11-30T12:24:53.920Z,12.38
2022-11-30T12:27:37.833Z,11.95
2022-11-30T12:33:14.191Z,10.88
2022-11-30T12:35:47.075Z,12.27
2022-11-30T12:38:42.205Z,12.18
2022-11-30T12:41:32.249Z,10.68
2022-11-30T12:44:13.634Z,11.10
2022-11-30T12:46:46.509Z,12.80
2022-11-30T12:49:49.851Z,16.45
2022-11-30T12:52:39.435Z,12.80
2022-11-30T12:55:23.675Z,14.38
2022-11-30T12:58:20.280Z,10.07
2022-11-30T13:01:31.266Z,12.05
2022-11-30T13:04:08.981Z,11.70
2022-11-30T13:06:39.217Z,12.88
2022-11-30T13:09:16.826Z,14.18
2022-11-30T13:11:49.606Z,14.00
2022-11-30T13:14:24.427Z,14.65
2022-11-30T13:17:04.027Z,15.13
2022-11-30T13:19:57.299Z,14.70
2022-11-30T13:22:45.471Z,16.23
2022-11-30T13:25:18.169Z,13.15
2022-11-30T13:28:07.951Z,13.60
2022-11-30T13:30:36.576Z,14.45
2022-11-30T13:33:37.667Z,15.57
2022-11-30T13:36:38.153Z,12.88
2022-11-30T13:39:14.113Z,13.57
2022-11-30T13:41:45.388Z,13.02
2022-11-30T13:44:31.153Z,14.93
2022-11-30T13:46:58.356Z,19.30
2022-11-30T13:49:29.031Z,16.88
2022-11-30T13:52:20.564Z,14.70
2022-11-30T13:54:46.767Z,17.67
2022-11-30T13:57:28.876Z,13.80
2022-11-30T13:59:56.416Z,15.02
2022-11-30T14:05:39.701Z,13.30
2022-11-30T14:08:06.608Z,10.15
2022-11-30T14:10:46.079Z,13.00
2022-11-30T14:13:14.162Z,12.82
2022-11-30T14:15:41.981Z,14.85
2022-11-30T14:18:08.945Z,12.55
2022-11-30T14:20:53.731Z,11.00
2022-11-30T14:23:26.734Z,13.77
2022-11-30T14:25:55.218Z,12.13
2022-11-30T14:28:27.572Z,12.48
2022-11-30T14:30:55.826Z,13.60
2022-11-30T14:33:40.790Z,13.68
2022-11-30T14:36:09.144Z,12.27
2022-11-30T14:38:40.157Z,12.43
2022-11-30T14:41:07.082Z,12.00
2022-11-30T14:43:34.019Z,10.95
2022-11-30T14:46:10.211Z,13.27
2022-11-30T14:48:40.172Z,13.93
2022-11-30T14:51:07.006Z,13.45
2022-11-30T14:53:36.237Z,14.00
2022-11-30T14:56:35.201Z,14.75
2022-11-30T14:59:32.691Z,14.00
2022-11-30T15:02:00.865Z,14.77
2022-11-30T15:04:28.013Z,14.70
2022-11-30T15:06:55.791Z,14.05
2022-11-30T15:09:29.405Z,15.35
2022-11-30T15:14:24.348Z,14.65
2022-11-30T15:16:55.435Z,15.93
2022-11-30T15:19:30.687Z,16.77
2022-11-30T15:21:58.392Z,20.50
2022-11-30T15:24:26.030Z,15.95
2022-11-30T15:27:06.992Z,16.05
2022-11-30T15:29:39.613Z,18.20
2022-11-30T15:32:08.267Z,18.27
2022-11-30T15:34:58.368Z,19.02
2022-11-30T15:37:32.530Z,18.77
2022-11-30T15:40:00.802Z,17.58
2022-11-30T15:42:39.496Z,15.50
2022-11-30T15:45:35.977Z,17.33
2022-11-30T15:48:03.593Z,19.20
2022-11-30T15:50:32.034Z,20.77
2022-11-30T15:53:00.441Z,18.05
2022-11-30T15:55:50.401Z,18.58
2022-11-30T15:58:35.323Z,21.02
2022-11-30T16:01:09.448Z,22.52
2022-11-30T16:04:08.866Z,21.02
2022-11-30T16:06:48.250Z,17.65
2022-11-30T16:09:25.393Z,18.38
2022-11-30T16:11:57.141Z,19.65
2022-11-30T16:14:24.123Z,19.73
2022-11-30T16:16:53.084Z,20.23
2022-11-30T16:19:20.341Z,17.70
2022-11-30T16:21:48.470Z,21.33
2022-11-30T16:24:15.560Z,19.52
2022-11-30T16:26:51.047Z,21.45
2022-11-30T16:29:18.958Z,21.67
2022-11-30T16:31:45.947Z,20.05
2022-11-30T16:34:12.833Z,25.67
2022-11-30T16:36:39.935Z,28.27
2022-11-30T16:39:06.890Z,26.58
2022-11-30T16:41:34.003Z,29.58
2022-11-30T16:44:00.959Z,28.80
2022-11-30T16:46:28.926Z,30.45
2022-11-30T16:48:56.338Z,28.92
2022-11-30T16:51:28.183Z,26.23
2022-11-30T16:53:55.280Z,26.17
2022-11-30T16:56:22.121Z,22.60
2022-11-30T16:58:49.291Z,24.63
2022-11-30T17:01:25.577Z,23.08
2022-11-30T17:03:54.937Z,26.55
2022-11-30T17:06:23.250Z,25.20
2022-11-30T17:08:50.436Z,24.13
2022-11-30T17:11:34.127Z,23.42
2022-11-30T17:14:01.054Z,25.52
2022-11-30T17:16:27.974Z,25.55
2022-11-30T17:18:55.116Z,23.50
2022-11-30T17:21:30.275Z,26.65
2022-11-30T17:23:57.299Z,25.58
2022-11-30T17:26:24.173Z,25.23
2022-11-30T17:28:51.091Z,23.17
2022-11-30T17:31:18.135Z,25.02
2022-11-30T17:33:48.368Z,22.33
2022-11-30T17:36:19.010Z,27.90
2022-11-30T17:38:46.023Z,26.48
2022-11-30T17:41:18.905Z,23.73
2022-11-30T17:46:15.821Z,19.88
2022-11-30T17:48:44.504Z,24.00
2022-11-30T17:51:12.193Z,28.15
2022-11-30T17:53:39.847Z,23.65
2022-11-30T17:56:08.599Z,22.02
2022-11-30T17:58:43.696Z,23.05
2022-11-30T18:01:25.419Z,29.77
2022-11-30T18:03:55.382Z,25.55
2022-11-30T18:06:22.455Z,27.85
2022-11-30T18:08:49.663Z,31.55
2022-11-30T18:11:21.329Z,28.65
2022-11-30T18:13:53.510Z,31.38
2022-11-30T18:16:25.506Z,26.50
2022-11-30T18:18:53.132Z,27.88
2022-11-30T18:21:21.233Z,36.55
2022-11-30T18:23:49.012Z,33.60
2022-11-30T18:26:17.800Z,30.17
2022-11-30T18:28:45.334Z,28.85
2022-11-30T18:31:12.813Z,30.27
2022-11-30T18:33:41.026Z,38.38
2022-11-30T18:36:08.101Z,34.53
2022-11-30T18:38:37.959Z,26.58
2022-11-30T18:41:05.845Z,26.48
2022-11-30T18:43:33.795Z,29.33
2022-11-30T18:46:08.658Z,24.67
2022-11-30T18:48:36.269Z,24.98
2022-11-30T18:51:13.398Z,27.23
2022-11-30T18:53:40.363Z,30.35
2022-11-30T18:56:18.039Z,26.25
2022-11-30T18:58:50.618Z,28.65
2022-11-30T19:01:19.445Z,28.10
2022-11-30T19:04:00.782Z,30.02
2022-11-30T19:06:32.901Z,25.40
2022-11-30T19:09:12.665Z,29.20
2022-11-30T19:11:45.216Z,27.52
2022-11-30T19:14:15.712Z,28.38
2022-11-30T19:16:43.299Z,27.95
2022-11-30T19:19:12.628Z,31.20
2022-11-30T19:21:42.305Z,26.52
2022-11-30T19:24:09.892Z,28.30
2022-11-30T19:26:40.197Z,27.27
2022-11-30T19:29:08.055Z,27.90
2022-11-30T19:31:35.794Z,26.67
2022-11-30T19:34:09.078Z,29.58
2022-11-30T19:36:40.709Z,28.85
2022-11-30T19:39:08.169Z,28.25
2022-11-30T19:41:35.856Z,26.45
2022-11-30T19:44:04.322Z,28.75
2022-11-30T19:46:33.315Z,27.05
2022-11-30T19:49:02.357Z,28.35
2022-11-30T19:51:30.012Z,27.20
2022-11-30T19:54:02.098Z,28.10
2022-11-30T19:56:31.398Z,29.02
2022-11-30T19:59:04.041Z,28.08
2022-11-30T20:01:32.811Z,27.60
2022-11-30T20:04:00.172Z,28.40
2022-11-30T20:06:29.186Z,30.42
2022-11-30T20:08:56.190Z,27.45
2022-11-30T20:11:23.402Z,30.90
2022-11-30T20:13:51.618Z,29.63
2022-11-30T20:16:20.218Z,29.45
2022-11-30T20:18:55.384Z,30.92
2022-11-30T20:21:27.430Z,30.02
2022-11-30T20:23:57.876Z,28.80
2022-11-30T20:26:33.932Z,31.35
2022-11-30T20:29:01.860Z,35.05
2022-11-30T20:31:30.080Z,31.33
2022-11-30T20:33:57.305Z,34.78
2022-11-30T20:36:24.662Z,32.22
2022-11-30T20:38:51.785Z,34.50
2022-11-30T20:41:20.613Z,30.75
2022-11-30T20:43:47.879Z,30.92
2022-11-30T20:46:16.325Z,34.40
2022-11-30T20:48:44.001Z,36.25
2022-11-30T20:51:30.696Z,34.45
2022-11-30T20:54:00.229Z,33.85
2022-11-30T20:56:27.137Z,31.58
2022-11-30T20:58:54.145Z,32.50
2022-11-30T21:01:21.655Z,31.08
2022-11-30T21:03:49.029Z,34.85
2022-11-30T21:06:16.147Z,30.35
2022-11-30T21:08:43.225Z,32.55
2022-11-30T21:11:12.238Z,40.97
2022-11-30T21:13:39.582Z,36.53
2022-11-30T21:16:07.353Z,37.38
2022-11-30T21:18:35.096Z,32.78
2022-11-30T21:21:06.345Z,36.38
2022-11-30T21:23:33.427Z,34.45
2022-11-30T21:26:05.021Z,44.00
2022-11-30T21:28:37.689Z,43.05
2022-11-30T21:31:08.376Z,38.88
2022-11-30T21:33:35.343Z,39.38
2022-11-30T21:36:09.256Z,33.40
2022-11-30T21:38:36.130Z,34.55
2022-11-30T21:41:03.097Z,31.23
2022-11-30T21:43:30.404Z,37.65
2022-11-30T21:45:59.579Z,33.13
2022-11-30T21:48:29.907Z,33.70
2022-11-30T21:51:04.334Z,33.15
2022-11-30T21:53:31.749Z,35.60
2022-11-30T21:56:05.697Z,29.80
2022-11-30T21:58:34.071Z,36.05
2022-11-30T22:01:01.910Z,33.75
2022-11-30T22:03:29.000Z,34.83
2022-11-30T22:06:02.762Z,35.10
2022-11-30T22:08:29.908Z,39.05
2022-11-30T22:11:10.374Z,40.20
2022-11-30T22:13:37.527Z,39.33
2022-11-30T22:16:12.822Z,35.88
2022-11-30T22:18:40.334Z,35.67
2022-11-30T22:21:15.630Z,38.50
2022-11-30T22:23:44.361Z,36.72
2022-11-30T22:26:15.349Z,37.63
2022-11-30T22:28:44.360Z,35.72
2022-11-30T22:31:12.097Z,37.15
2022-11-30T22:33:40.195Z,34.75
2022-11-30T22:36:07.803Z,33.53
2022-11-30T22:38:39.822Z,31.42
2022-11-30T22:41:14.707Z,38.55
2022-11-30T22:43:42.327Z,38.20
2022-11-30T22:46:16.953Z,40.33
2022-11-30T22:48:45.381Z,36.88
2022-11-30T22:51:22.546Z,38.03
2022-11-30T22:53:50.015Z,33.25
2022-11-30T22:56:19.782Z,31.67
2022-11-30T22:58:47.424Z,33.33
2022-11-30T23:01:28.141Z,47.53
2022-11-30T23:03:58.933Z,40.47
2022-11-30T23:06:26.019Z,38.47
2022-11-30T23:08:53.688Z,42.40
2022-11-30T23:11:22.505Z,42.83
2022-11-30T23:13:49.505Z,39.05
2022-11-30T23:16:16.806Z,36.10
2022-11-30T23:18:45.609Z,37.95
2022-11-30T23:21:14.273Z,35.17
2022-11-30T23:23:41.996Z,40.72
2022-11-30T23:26:17.378Z,38.10
2022-11-30T23:28:45.115Z,34.80
2022-11-30T23:31:34.027Z,39.15
2022-11-30T23:34:00.809Z,35.35
2022-11-30T23:36:30.313Z,37.85
2022-11-30T23:38:58.581Z,34.92
2022-11-30T23:41:25.553Z,35.40
2022-11-30T23:43:52.801Z,39.47
2022-11-30T23:46:19.813Z,31.10
2022-11-30T23:48:47.522Z,32.22
2022-11-30T23:51:14.374Z,35.42
2022-11-30T23:53:41.204Z,35.20
2022-11-30T23:56:09.652Z,31.40
2022-11-30T23:58:36.714Z,39.53
